Time;durP1;ratioP1;P1;durP2;ratioP2;P2;SDS_P1;SDS_P2;PMS_P1;PMS_P2;Temp;Humidity;BMP_temperature;BMP_pressure;BME280_temperature;BME280_humidity;BME280_pressure;Samples;Min_cycle;Max_cycle;Signal;HPM_P1;HPM_P2
2023/08/18 00:00:23;;;;;;;9.38;2.40;;;;;;;23.97;46.37;94017.50;5023366;28;20053;-80
2023/08/18 00:02:49;;;;;;;8.93;2.30;;;;;;;23.96;46.89;94005.06;5023292;28;20205;-81
2023/08/18 00:05:15;;;;;;;7.95;2.47;;;;;;;23.92;46.47;93998.88;5023396;28;20228;-81
2023/08/18 00:07:41;;;;;;;6.32;2.13;;;;;;;23.89;46.44;94005.84;5023301;28;20021;-81
2023/08/18 00:10:08;;;;;;;6.38;2.90;;;;;;;23.83;46.65;94012.88;5023119;28;20018;-80
2023/08/18 00:12:34;;;;;;;8.02;2.30;;;;;;;23.79;46.79;93999.31;5023020;28;20028;-81
2023/08/18 00:14:59;;;;;;;7.07;2.33;;;;;;;23.81;45.95;93998.88;5021872;28;20026;-81
2023/08/18 00:17:25;;;;;;;3.88;2.15;;;;;;;23.79;45.77;94004.75;5021982;28;20099;-81
2023/08/18 00:19:52;;;;;;;7.80;1.88;;;;;;;23.78;46.41;93997.75;5021113;28;20033;-81
2023/08/18 00:22:18;;;;;;;8.10;2.65;;;;;;;23.76;45.97;94002.75;5023121;28;20021;-81
2023/08/18 00:24:43;;;;;;;5.47;2.03;;;;;;;23.74;46.30;93999.66;5023026;28;20032;-80
2023/08/18 00:27:09;;;;;;;9.02;2.63;;;;;;;23.74;46.24;93991.50;5021597;28;20128;-81
2023/08/18 00:29:34;;;;;;;9.93;2.65;;;;;;;23.71;46.41;93996.94;5022912;28;20085;-80
2023/08/18 00:32:00;;;;;;;3.70;2.22;;;;;;;23.67;46.41;93988.81;5022895;28;20018;-81
2023/08/18 00:34:25;;;;;;;6.93;2.47;;;;;;;23.66;45.97;94003.56;5022799;28;20018;-81
2023/08/18 00:36:51;;;;;;;7.75;4.05;;;;;;;23.58;46.14;93985.72;5021827;28;20026;-81
2023/08/18 00:39:17;;;;;;;4.75;2.25;;;;;;;23.58;46.32;93994.66;5022948;28;20105;-80
2023/08/18 00:41:42;;;;;;;12.00;2.65;;;;;;;23.60;46.22;93988.81;5022737;28;20226;-81
2023/08/18 00:44:08;;;;;;;5.32;2.30;;;;;;;23.59;46.13;93981.81;5021654;28;20030;-80
2023/08/18 00:46:33;;;;;;;6.38;2.45;;;;;;;23.57;46.35;93978.72;5021597;28;20024;-80
2023/08/18 00:49:01;;;;;;;3.53;2.25;;;;;;;23.57;46.41;93976.00;5021534;28;20036;-80
2023/08/18 00:51:27;;;;;;;7.40;2.35;;;;;;;23.55;46.50;93983.78;5021418;28;20060;-81
2023/08/18 00:53:54;;;;;;;5.45;2.65;;;;;;;23.54;46.66;93976.78;5022686;28;20088;-80
2023/08/18 00:56:21;;;;;;;4.63;2.00;;;;;;;23.50;46.80;93976.78;5022710;28;20026;-81
2023/08/18 00:58:46;;;;;;;9.18;2.55;;;;;;;23.50;46.48;93978.75;5022616;28;20323;-80
2023/08/18 01:01:13;;;;;;;6.88;2.38;;;;;;;23.49;46.75;93983.41;5022501;28;20045;-81
2023/08/18 01:03:39;;;;;;;10.27;2.72;;;;;;;23.44;46.62;93984.56;5021490;28;20228;-81
2023/08/18 01:06:04;;;;;;;7.40;3.00;;;;;;;23.47;46.64;93980.31;5022576;28;20041;-81
2023/08/18 01:08:30;;;;;;;7.18;2.45;;;;;;;23.50;46.46;93978.75;5022460;28;20216;-81
2023/08/18 01:11:24;;;;;;;4.25;2.30;;;;;;;23.44;46.99;93975.66;5021113;28;20041;-81
2023/08/18 01:14:02;;;;;;;7.03;2.55;;;;;;;23.37;48.04;93990.03;5022421;28;20049;-81
2023/08/18 01:16:29;;;;;;;7.10;2.55;;;;;;;23.32;48.64;93984.22;5022622;28;20128;-81
2023/08/18 01:18:54;;;;;;;9.05;2.28;;;;;;;23.30;48.73;93981.13;5022467;28;20033;-81
2023/08/18 01:21:23;;;;;;;7.05;2.63;;;;;;;23.22;49.27;93993.94;5020012;28;20367;-81
2023/08/18 01:23:49;;;;;;;4.28;2.60;;;;;;;23.18;50.04;93987.72;5021015;28;20021;-81
2023/08/18 01:26:14;;;;;;;15.35;3.22;;;;;;;23.11;50.64;93995.91;5021160;28;20072;-81
2023/08/18 01:28:41;;;;;;;8.00;3.03;;;;;;;23.02;51.00;93991.63;5022063;28;20033;-81
2023/08/18 01:31:22;;;;;;;8.95;3.00;;;;;;;22.96;50.97;94000.53;5023522;28;20022;-81
2023/08/18 01:34:00;;;;;;;8.38;2.95;;;;;;;22.91;51.89;93990.81;5026284;28;20343;-81
2023/08/18 01:36:33;;;;;;;6.82;3.28;;;;;;;22.86;52.08;94001.28;5025959;28;20022;-80
2023/08/18 01:39:01;;;;;;;7.85;2.97;;;;;;;22.81;52.72;93997.81;5025895;28;20343;-80
2023/08/18 01:41:27;;;;;;;8.25;2.90;;;;;;;22.78;52.56;94003.25;5025903;28;20227;-80
2023/08/18 01:43:53;;;;;;;7.30;2.78;;;;;;;22.68;53.00;94004.03;5025879;28;20029;-81
2023/08/18 01:46:18;;;;;;;9.98;3.50;;;;;;;22.61;53.19;94000.13;5025907;28;20025;-80
2023/08/18 01:48:44;;;;;;;6.65;2.80;;;;;;;22.56;53.42;94011.38;5025786;28;20316;-80
2023/08/18 01:51:09;;;;;;;5.10;3.08;;;;;;;22.50;53.70;94002.03;5025516;28;20039;-81
2023/08/18 01:53:35;;;;;;;6.90;2.83;;;;;;;22.46;54.13;93995.81;5024453;28;20400;-80
2023/08/18 01:56:02;;;;;;;11.60;3.47;;;;;;;22.42;54.34;93997.75;5025818;28;20055;-81
2023/08/18 01:58:28;;;;;;;8.45;3.75;;;;;;;22.37;54.37;93998.16;5024421;28;20100;-81
2023/08/18 02:00:58;;;;;;;7.60;3.35;;;;;;;22.30;54.44;93998.13;5025281;28;20022;-80
2023/08/18 02:03:27;;;;;;;11.55;3.35;;;;;;;22.28;54.74;94003.94;5025525;28;20326;-81
2023/08/18 02:05:53;;;;;;;10.57;3.15;;;;;;;22.23;54.95;93994.22;5025580;28;20045;-80
2023/08/18 02:08:20;;;;;;;5.93;3.47;;;;;;;22.12;55.45;93989.91;5025660;28;20069;-81
2023/08/18 02:10:46;;;;;;;5.70;3.15;;;;;;;22.12;55.57;93987.94;5025219;28;20033;-81
2023/08/18 02:13:11;;;;;;;7.65;3.30;;;;;;;22.08;55.41;93984.44;5025182;28;20323;-81
2023/08/18 02:15:36;;;;;;;7.18;3.00;;;;;;;22.08;55.34;93976.31;5025267;28;20339;-80
2023/08/18 02:18:03;;;;;;;7.70;3.58;;;;;;;22.08;55.53;93973.59;5025334;28;20026;-81
2023/08/18 02:20:29;;;;;;;9.55;3.38;;;;;;;22.02;55.76;93967.78;5025176;28;20022;-81
2023/08/18 02:22:55;;;;;;;6.93;2.90;;;;;;;22.00;55.74;93963.88;5024989;28;20053;-80
2023/08/18 02:25:21;;;;;;;6.45;3.08;;;;;;;21.97;55.39;93964.66;5025220;28;20205;-81
2023/08/18 02:27:46;;;;;;;6.47;3.40;;;;;;;21.97;55.37;93970.09;5025078;28;20032;-81
2023/08/18 02:30:12;;;;;;;6.70;3.13;;;;;;;21.96;55.36;93963.09;5024918;28;20029;-81
2023/08/18 02:32:38;;;;;;;9.88;4.43;;;;;;;21.92;55.09;93963.09;5024773;28;20029;-81
2023/08/18 02:35:03;;;;;;;22.08;3.78;;;;;;;21.89;55.00;93963.84;5024776;28;20220;-81
2023/08/18 02:37:29;;;;;;;5.30;2.95;;;;;;;21.93;54.53;93969.28;5024794;28;20064;-81
2023/08/18 02:39:54;;;;;;;6.30;2.63;;;;;;;21.95;54.56;93962.31;5023561;28;20084;-81
2023/08/18 02:42:20;;;;;;;9.75;3.05;;;;;;;21.93;54.79;93961.16;5022810;28;20034;-81
2023/08/18 02:44:46;;;;;;;6.97;3.05;;;;;;;21.93;54.30;93969.28;5024573;28;20048;-81
2023/08/18 02:47:13;;;;;;;8.88;2.85;;;;;;;21.91;53.94;93961.53;5024790;28;20026;-81
2023/08/18 02:49:38;;;;;;;5.15;3.05;;;;;;;21.91;53.59;93966.97;5024720;28;20026;-81
2023/08/18 02:52:04;;;;;;;5.22;2.88;;;;;;;21.92;53.71;93973.94;5024495;28;20375;-81
2023/08/18 02:54:29;;;;;;;6.05;3.05;;;;;;;21.95;53.09;93972.41;5024575;28;20197;-81
2023/08/18 02:56:55;;;;;;;4.55;2.58;;;;;;;21.96;53.30;93971.22;5023260;28;20316;-81
2023/08/18 02:59:20;;;;;;;6.82;3.00;;;;;;;21.95;53.50;93967.75;5024435;28;20022;-81
2023/08/18 03:01:46;;;;;;;8.13;2.90;;;;;;;21.93;53.78;93975.50;5024420;28;20029;-81
2023/08/18 03:04:14;;;;;;;8.38;3.03;;;;;;;21.92;53.80;93970.44;5024294;28;20545;-81
2023/08/18 03:06:40;;;;;;;4.68;2.75;;;;;;;21.91;54.10;93985.19;5024152;28;20262;-81
2023/08/18 03:09:05;;;;;;;7.38;3.13;;;;;;;21.86;54.35;93969.25;5024258;28;20022;-81
2023/08/18 03:11:31;;;;;;;7.10;2.63;;;;;;;21.85;54.44;93968.50;5024336;28;20053;-81
2023/08/18 03:13:56;;;;;;;8.40;3.45;;;;;;;21.79;54.57;93975.44;5024173;28;20219;-81
2023/08/18 03:16:22;;;;;;;8.98;3.08;;;;;;;21.80;54.92;93991.34;5024139;28;20080;-81
2023/08/18 03:18:47;;;;;;;6.82;3.03;;;;;;;21.77;54.92;93983.19;5024136;28;20088;-81
2023/08/18 03:21:13;;;;;;;7.60;3.25;;;;;;;21.69;55.38;93992.44;5024084;28;20029;-81
2023/08/18 03:23:38;;;;;;;8.80;3.15;;;;;;;21.63;55.51;93990.09;5023986;28;20065;-81
2023/08/18 03:26:05;;;;;;;6.03;2.90;;;;;;;21.60;55.66;93990.09;5023953;28;20026;-81
2023/08/18 03:28:32;;;;;;;7.93;3.22;;;;;;;21.53;55.92;93995.47;5023696;28;20022;-81
2023/08/18 03:31:02;;;;;;;6.45;3.08;;;;;;;21.48;56.07;93988.47;5023886;28;20036;-80
2023/08/18 03:33:29;;;;;;;7.63;3.20;;;;;;;21.36;56.33;93994.94;5023761;28;20049;-81
2023/08/18 03:35:55;;;;;;;10.38;3.08;;;;;;;21.29;56.46;93996.84;5023891;28;20072;-81
2023/08/18 03:38:21;;;;;;;10.10;3.53;;;;;;;21.25;56.70;94002.25;5023891;28;20049;-81
2023/08/18 03:40:48;;;;;;;5.28;2.97;;;;;;;21.19;56.57;93992.91;5022455;28;20323;-80
2023/08/18 03:43:13;;;;;;;7.45;3.17;;;;;;;21.08;57.10;93997.47;5023612;28;20029;-80
2023/08/18 03:45:39;;;;;;;20.73;3.40;;;;;;;21.06;57.61;93999.78;5022381;28;20056;-81
2023/08/18 03:48:05;;;;;;;10.23;2.85;;;;;;;21.00;57.71;93993.94;5023628;28;20030;-81
2023/08/18 03:50:31;;;;;;;10.40;3.92;;;;;;;20.95;58.09;93997.78;5023420;28;20029;-81
2023/08/18 03:52:57;;;;;;;10.60;3.42;;;;;;;20.95;58.09;93989.66;5023426;28;20022;-81
2023/08/18 03:55:23;;;;;;;13.10;4.28;;;;;;;20.95;58.17;93995.06;5023257;28;20266;-81
2023/08/18 03:57:48;;;;;;;7.07;3.53;;;;;;;20.94;58.36;93988.06;5023788;28;20053;-81
2023/08/18 04:00:15;;;;;;;7.07;3.55;;;;;;;20.96;58.58;93996.59;5023277;28;20228;-81
2023/08/18 04:02:40;;;;;;;8.90;3.65;;;;;;;20.98;59.24;94002.44;5023215;28;20032;-81
2023/08/18 04:05:06;;;;;;;12.85;4.00;;;;;;;20.94;59.52;94004.34;5023425;28;20017;-81
2023/08/18 04:07:31;;;;;;;14.65;5.45;;;;;;;20.94;59.07;93996.19;5022103;28;20379;-80
2023/08/18 04:09:57;;;;;;;9.30;3.97;;;;;;;20.97;59.22;93992.75;5023057;28;20021;-80
2023/08/18 04:12:23;;;;;;;9.23;3.85;;;;;;;21.01;59.31;93998.97;5022932;28;20025;-80
2023/08/18 04:14:48;;;;;;;10.85;3.95;;;;;;;21.06;59.15;93997.06;5023328;28;20308;-80
2023/08/18 04:17:14;;;;;;;15.18;3.75;;;;;;;21.09;59.57;94001.75;5021888;28;20312;-80
2023/08/18 04:19:40;;;;;;;9.50;3.80;;;;;;;21.08;59.66;94002.91;5022983;28;20040;-80
2023/08/18 04:22:05;;;;;;;7.30;3.17;;;;;;;21.06;59.73;94003.25;5022977;28;20330;-80
2023/08/18 04:24:30;;;;;;;15.02;3.90;;;;;;;21.08;59.25;94008.31;5022923;28;20220;-80
2023/08/18 04:26:59;;;;;;;9.88;3.63;;;;;;;21.14;58.73;94010.28;5022864;28;20032;-80
2023/08/18 04:29:28;;;;;;;7.00;3.50;;;;;;;21.14;59.10;94007.59;5023015;28;20263;-80
2023/08/18 04:31:54;;;;;;;10.25;3.45;;;;;;;21.20;59.92;94013.44;5022959;28;20045;-80
2023/08/18 04:34:19;;;;;;;6.78;3.53;;;;;;;21.19;59.29;94009.97;5022805;28;20040;-80
2023/08/18 04:36:45;;;;;;;12.32;3.60;;;;;;;21.20;59.30;94013.44;5022919;28;20021;-81
2023/08/18 04:39:11;;;;;;;15.07;4.03;;;;;;;21.24;58.42;94011.53;5022839;28;20010;-80
2023/08/18 04:41:37;;;;;;;9.23;4.05;;;;;;;21.30;58.45;94010.03;5022630;28;20255;-80
2023/08/18 04:44:03;;;;;;;11.32;3.67;;;;;;;21.37;59.01;94012.78;5021510;28;20100;-80
2023/08/18 04:46:29;;;;;;;10.90;4.00;;;;;;;21.43;59.99;94008.59;5022728;28;20017;-80
2023/08/18 04:48:54;;;;;;;6.07;3.67;;;;;;;21.50;60.15;94017.94;5022931;28;20029;-80
2023/08/18 04:51:20;;;;;;;17.67;3.85;;;;;;;21.57;59.61;94017.94;5022739;28;20087;-80
2023/08/18 04:53:45;;;;;;;10.27;3.72;;;;;;;21.50;58.41;94018.69;5022626;28;20382;-80
2023/08/18 04:56:11;;;;;;;22.33;4.30;;;;;;;21.57;59.13;94026.09;5021441;28;20026;-80
2023/08/18 04:58:37;;;;;;;7.95;3.45;;;;;;;21.60;59.12;94025.34;5022775;28;20014;-80
2023/08/18 05:01:03;;;;;;;9.75;3.55;;;;;;;21.67;58.50;94021.88;5022609;28;20029;-80
2023/08/18 05:03:28;;;;;;;10.00;3.75;;;;;;;21.72;58.32;94025.03;5021432;28;20048;-80
2023/08/18 05:06:08;;;;;;;8.57;3.95;;;;;;;21.79;57.83;94019.63;5023534;28;20367;-80
2023/08/18 05:08:35;;;;;;;12.93;3.78;;;;;;;21.83;57.11;94022.34;5026398;28;20034;-80
2023/08/18 05:11:06;;;;;;;11.93;4.13;;;;;;;21.92;56.98;94022.78;5026392;28;20076;-80
2023/08/18 05:13:35;;;;;;;10.82;3.53;;;;;;;22.00;56.75;94021.66;5026221;28;20021;-80
2023/08/18 05:16:01;;;;;;;9.13;3.97;;;;;;;22.11;55.95;94021.69;5026411;28;20056;-80
2023/08/18 05:18:29;;;;;;;16.52;3.72;;;;;;;22.19;55.84;94023.28;5026412;28;20017;-81
2023/08/18 05:20:56;;;;;;;13.45;4.00;;;;;;;22.31;55.97;94026.81;5025008;28;20023;-80
2023/08/18 05:23:22;;;;;;;5.88;3.45;;;;;;;22.32;55.60;94026.44;5026311;28;20018;-80
2023/08/18 05:25:48;;;;;;;21.60;4.95;;;;;;;22.42;55.60;94030.34;5026145;28;20022;-80
2023/08/18 05:28:16;;;;;;;10.02;3.65;;;;;;;22.52;55.12;94028.81;5026179;28;20032;-80
2023/08/18 05:30:45;;;;;;;7.93;4.03;;;;;;;22.58;55.97;94035.44;5026008;28;20034;-80
2023/08/18 05:33:11;;;;;;;14.32;4.35;;;;;;;22.65;56.10;94032.72;5026061;28;20053;-80
2023/08/18 05:35:36;;;;;;;11.63;4.72;;;;;;;22.72;55.29;94030.03;5024627;28;20044;-80
2023/08/18 05:38:04;;;;;;;13.13;4.60;;;;;;;22.81;55.60;94035.06;5024641;28;20084;-80
2023/08/18 05:40:29;;;;;;;12.60;4.35;;;;;;;22.88;55.31;94031.56;5024599;28;20052;-80
2023/08/18 05:42:55;;;;;;;21.58;4.20;;;;;;;22.93;55.55;94029.25;5025887;28;20315;-81
2023/08/18 05:45:20;;;;;;;18.17;4.05;;;;;;;23.03;54.84;94033.19;5025719;28;20320;-80
2023/08/18 05:47:45;;;;;;;12.63;4.00;;;;;;;23.11;54.14;94039.41;5025574;28;20025;-80
2023/08/18 05:50:11;;;;;;;8.80;3.67;;;;;;;23.21;54.50;94030.47;5025636;28;20014;-80
2023/08/18 05:52:37;;;;;;;21.88;3.72;;;;;;;23.27;54.90;94037.06;5025820;28;20338;-80
2023/08/18 05:55:04;;;;;;;12.07;4.00;;;;;;;23.35;54.02;94037.84;5025504;28;20088;-80
2023/08/18 05:57:30;;;;;;;12.57;3.85;;;;;;;23.42;53.07;94038.59;5025280;28;20311;-80
2023/08/18 05:59:55;;;;;;;24.02;4.53;;;;;;;23.46;52.73;94037.81;5025296;28;20103;-81
2023/08/18 06:02:21;;;;;;;14.80;3.72;;;;;;;23.52;53.51;94041.69;5024583;28;20053;-81
2023/08/18 06:04:46;;;;;;;12.27;4.38;;;;;;;23.53;52.95;94040.50;5025252;28;20308;-81
2023/08/18 06:07:12;;;;;;;15.30;4.03;;;;;;;23.61;52.95;94034.69;5025276;28;20034;-80
2023/08/18 06:09:37;;;;;;;14.00;3.92;;;;;;;23.73;52.80;94040.88;5023940;28;20320;-81
2023/08/18 06:12:03;;;;;;;16.10;3.70;;;;;;;23.83;52.16;94031.94;5023947;28;20054;-81
2023/08/18 06:14:28;;;;;;;12.82;4.00;;;;;;;23.90;52.18;94039.31;5025248;28;20060;-80
2023/08/18 06:16:54;;;;;;;23.60;5.38;;;;;;;23.98;52.00;94041.59;5024316;28;20026;-81
2023/08/18 06:19:19;;;;;;;15.48;3.83;;;;;;;24.02;52.04;94038.88;5024627;28;20224;-81
2023/08/18 06:21:45;;;;;;;32.67;4.82;;;;;;;24.10;52.83;94039.59;5023887;28;20207;-81
2023/08/18 06:24:10;;;;;;;8.93;3.30;;;;;;;24.21;52.37;94043.84;5025109;28;20036;-80
2023/08/18 06:26:36;;;;;;;11.65;4.00;;;;;;;24.28;51.41;94036.81;5023851;28;20092;-80
2023/08/18 06:29:01;;;;;;;14.55;4.32;;;;;;;24.38;51.51;94038.72;5023751;28;20248;-81
2023/08/18 06:31:26;;;;;;;13.82;3.95;;;;;;;24.43;51.22;94032.88;5023626;28;20026;-81
2023/08/18 06:33:52;;;;;;;23.88;4.60;;;;;;;24.50;51.14;94045.69;5025048;28;20276;-80
2023/08/18 06:36:17;;;;;;;13.60;4.45;;;;;;;24.58;51.18;94042.53;5023706;28;20140;-81
2023/08/18 06:38:43;;;;;;;19.13;4.45;;;;;;;24.65;51.24;94038.22;5024887;28;20033;-81
2023/08/18 06:41:09;;;;;;;16.25;4.30;;;;;;;24.72;50.44;94046.34;5024716;28;20233;-80
2023/08/18 06:43:34;;;;;;;16.42;3.70;;;;;;;24.74;50.15;94042.03;5024774;28;20036;-80
2023/08/18 06:46:00;;;;;;;14.48;3.90;;;;;;;24.84;49.03;94043.16;5024653;28;20029;-80
2023/08/18 06:48:26;;;;;;;9.63;3.88;;;;;;;24.93;48.67;94051.66;5024406;28;20046;-80
2023/08/18 06:50:51;;;;;;;10.23;3.00;;;;;;;24.99;49.18;94047.34;5023444;28;20017;-80
2023/08/18 06:53:16;;;;;;;5.53;3.08;;;;;;;25.10;48.18;94043.75;5024407;28;20316;-80
2023/08/18 06:55:42;;;;;;;13.88;3.33;;;;;;;25.18;47.70;94047.97;5024571;28;20316;-81
2023/08/18 06:58:07;;;;;;;9.55;3.08;;;;;;;25.24;47.42;94040.94;5024294;28;20097;-80
2023/08/18 07:00:33;;;;;;;9.30;3.13;;;;;;;25.30;47.02;94044.00;5024242;28;20093;-80
2023/08/18 07:02:58;;;;;;;13.82;3.38;;;;;;;25.40;47.13;94052.13;5024177;28;20037;-81
2023/08/18 07:05:26;;;;;;;12.07;3.50;;;;;;;25.53;47.14;94051.59;5022845;28;20071;-81
2023/08/18 07:07:53;;;;;;;16.83;4.32;;;;;;;25.61;46.80;94055.81;5024509;28;20253;-81
2023/08/18 07:10:18;;;;;;;13.75;3.47;;;;;;;25.71;46.06;94040.53;5024262;28;20068;-81
2023/08/18 07:12:44;;;;;;;14.15;3.63;;;;;;;25.75;45.93;94036.56;5024201;28;20225;-80
2023/08/18 07:15:09;;;;;;;17.95;3.15;;;;;;;25.85;44.89;94047.78;5023930;28;20017;-81
2023/08/18 07:17:35;;;;;;;8.70;3.80;;;;;;;25.89;44.46;94034.84;5022669;28;20304;-80
2023/08/18 07:20:00;;;;;;;10.25;4.47;;;;;;;25.96;45.05;94043.00;5023905;28;20069;-80
2023/08/18 07:22:26;;;;;;;13.15;4.47;;;;;;;26.04;43.96;94044.47;5024016;28;20312;-80
2023/08/18 07:24:51;;;;;;;9.77;3.42;;;;;;;26.13;42.96;94039.28;5023943;28;20025;-80
2023/08/18 07:27:17;;;;;;;9.85;2.88;;;;;;;26.17;42.25;94040.03;5022674;28;20018;-81
2023/08/18 07:29:42;;;;;;;4.80;3.10;;;;;;;26.22;41.02;94038.81;5023282;28;20087;-80
2023/08/18 07:32:08;;;;;;;4.53;2.53;;;;;;;26.25;40.74;94042.69;5023568;28;20018;-80
2023/08/18 07:34:33;;;;;;;8.13;2.67;;;;;;;26.30;41.26;94036.78;5023739;28;20018;-80
2023/08/18 07:36:59;;;;;;;13.55;2.90;;;;;;;26.40;41.91;94049.53;5022609;28;20034;-80
2023/08/18 07:39:24;;;;;;;7.53;2.58;;;;;;;26.39;40.87;94040.53;5023330;28;20021;-80
2023/08/18 07:41:50;;;;;;;6.28;2.35;;;;;;;26.48;41.07;94047.44;5023743;28;20385;-81
2023/08/18 07:44:15;;;;;;;11.75;2.92;;;;;;;26.55;41.15;94041.91;5023725;28;20068;-81
2023/08/18 07:46:42;;;;;;;8.95;3.03;;;;;;;26.64;41.38;94046.88;5023448;28;20022;-80
2023/08/18 07:49:07;;;;;;;12.70;3.17;;;;;;;26.73;44.10;94042.47;5023439;28;20029;-80
2023/08/18 07:51:33;;;;;;;6.88;2.90;;;;;;;26.73;43.53;94049.91;5023307;28;20029;-80
2023/08/18 07:53:58;;;;;;;10.63;3.40;;;;;;;26.77;44.54;94042.41;5022338;28;20036;-80
2023/08/18 07:56:24;;;;;;;9.88;3.88;;;;;;;26.87;43.54;94052.44;5023533;28;20022;-80
2023/08/18 07:58:50;;;;;;;13.93;3.05;;;;;;;26.92;43.19;94051.94;5023502;28;20216;-80
2023/08/18 08:01:16;;;;;;;7.13;3.33;;;;;;;26.99;42.85;94043.66;5023148;28;20351;-80
2023/08/18 08:03:41;;;;;;;5.50;3.15;;;;;;;27.02;43.40;94040.06;5023159;28;20040;-80
2023/08/18 08:06:07;;;;;;;8.80;3.30;;;;;;;27.07;42.51;94046.25;5023279;28;20018;-80
2023/08/18 08:08:33;;;;;;;17.65;3.33;;;;;;;27.15;41.85;94044.97;5023406;28;20032;-80
2023/08/18 08:10:58;;;;;;;8.20;3.40;;;;;;;27.15;41.82;94050.44;5021826;28;20045;-80
2023/08/18 08:13:25;;;;;;;5.68;3.25;;;;;;;27.20;42.12;94047.25;5023073;28;20036;-80
2023/08/18 08:15:51;;;;;;;4.90;3.00;;;;;;;27.22;41.64;94045.63;5022918;28;20021;-81
2023/08/18 08:18:18;;;;;;;5.53;2.45;;;;;;;27.25;41.65;94043.28;5022981;28;20048;-80
2023/08/18 08:20:43;;;;;;;6.10;2.65;;;;;;;27.25;40.33;94035.84;5022860;28;20018;-81
2023/08/18 08:23:09;;;;;;;8.15;2.63;;;;;;;27.27;41.00;94038.16;5023048;28;20060;-81
2023/08/18 08:25:36;;;;;;;7.00;2.90;;;;;;;27.32;40.61;94027.53;5021848;28;20022;-81
2023/08/18 08:28:04;;;;;;;13.45;2.35;;;;;;;27.36;39.74;94028.25;5022792;28;20021;-81
2023/08/18 08:30:29;;;;;;;8.10;2.65;;;;;;;27.47;39.42;94030.78;5022752;28;20018;-81
2023/08/18 08:32:55;;;;;;;4.35;2.28;;;;;;;27.51;38.57;94033.47;5022967;28;20203;-81
2023/08/18 08:35:21;;;;;;;17.00;2.42;;;;;;;27.52;37.76;94018.56;5022749;28;20212;-80
2023/08/18 08:37:47;;;;;;;13.10;2.42;;;;;;;27.56;38.15;94025.56;5022567;28;20112;-81
2023/08/18 08:40:21;;;;;;;8.75;2.63;;;;;;;27.64;38.42;94026.22;5021774;28;20287;-81
2023/08/18 08:42:49;;;;;;;5.32;2.50;;;;;;;27.69;37.55;94031.19;5022648;28;20018;-80
2023/08/18 08:45:15;;;;;;;7.22;2.20;;;;;;;27.77;36.47;94034.56;5022724;28;20025;-81
2023/08/18 08:47:43;;;;;;;9.98;2.22;;;;;;;27.84;36.15;94026.22;5022739;28;20017;-80
2023/08/18 08:50:11;;;;;;;5.60;2.22;;;;;;;27.89;36.30;94022.25;5022691;28;20220;-81
2023/08/18 08:52:39;;;;;;;5.07;2.28;;;;;;;27.97;36.22;94021.69;5022699;28;20029;-81
2023/08/18 08:55:06;;;;;;;10.70;2.67;;;;;;;28.07;35.82;94019.94;5022677;28;20113;-81
2023/08/18 08:57:32;;;;;;;8.32;2.42;;;;;;;28.13;35.46;94022.94;5021272;28;20022;-81
2023/08/18 08:59:59;;;;;;;12.50;2.17;;;;;;;28.22;35.78;94028.66;5022466;28;20045;-80
2023/08/18 09:02:25;;;;;;;8.60;2.45;;;;;;;28.27;35.88;94033.66;5022604;28;20057;-79
2023/08/18 09:04:50;;;;;;;6.75;1.98;;;;;;;28.26;34.88;94014.88;5022717;28;20216;-80
2023/08/18 09:07:16;;;;;;;6.30;2.15;;;;;;;28.35;35.09;94015.06;5021388;28;20151;-80
2023/08/18 09:09:42;;;;;;;12.30;2.58;;;;;;;28.41;35.44;94016.13;5022540;28;20045;-80
2023/08/18 09:12:10;;;;;;;8.07;2.47;;;;;;;28.45;36.00;94014.06;5020860;28;20049;-80
2023/08/18 09:14:39;;;;;;;10.68;3.55;;;;;;;28.52;35.61;94013.97;5022512;28;20025;-80
2023/08/18 09:17:05;;;;;;;7.88;2.60;;;;;;;28.63;35.49;94010.97;5022466;28;20033;-81
2023/08/18 09:19:31;;;;;;;6.60;3.00;;;;;;;28.72;35.31;94015.88;5021208;28;20026;-80
2023/08/18 09:21:58;;;;;;;9.73;3.22;;;;;;;28.80;35.06;94006.28;5022426;28;20049;-80
2023/08/18 09:24:24;;;;;;;14.13;2.67;;;;;;;28.83;34.71;94010.94;5022339;28;20053;-81
2023/08/18 09:26:49;;;;;;;9.85;2.47;;;;;;;28.91;34.89;94017.03;5022394;28;20029;-80
2023/08/18 09:29:15;;;;;;;11.30;3.05;;;;;;;28.95;34.63;94017.72;5022235;28;20207;-80
2023/08/18 09:31:40;;;;;;;5.80;2.40;;;;;;;28.97;34.66;94015.31;5022349;28;20097;-80
2023/08/18 09:34:06;;;;;;;9.60;1.95;;;;;;;28.99;34.78;94013.69;5021157;28;20275;-80
2023/08/18 09:36:32;;;;;;;6.80;2.17;;;;;;;29.06;34.53;94015.47;5022232;28;20216;-80
2023/08/18 09:39:02;;;;;;;3.28;1.98;;;;;;;29.10;34.72;94018.13;5022072;28;20022;-80
2023/08/18 09:41:28;;;;;;;9.80;2.05;;;;;;;29.12;33.70;94024.00;5022153;28;20076;-80
2023/08/18 09:43:53;;;;;;;9.55;2.42;;;;;;;29.17;34.22;94015.28;5022196;28;20026;-80
2023/08/18 09:46:21;;;;;;;5.00;2.10;;;;;;;29.16;33.58;94017.22;5022198;28;20046;-80
2023/08/18 09:48:49;;;;;;;3.90;2.17;;;;;;;29.16;34.22;94005.47;5022214;28;20022;-80
2023/08/18 09:51:20;;;;;;;6.20;2.20;;;;;;;29.17;34.16;94023.50;5022072;28;20085;-80
2023/08/18 09:53:57;;;;;;;13.05;2.33;;;;;;;29.24;34.00;94014.31;5025632;28;20022;-80
2023/08/18 09:56:27;;;;;;;7.32;2.50;;;;;;;29.31;34.48;94011.38;5025574;28;20154;-80
2023/08/18 09:59:02;;;;;;;6.40;2.55;;;;;;;29.36;33.58;94006.16;5025728;28;20056;-80
2023/08/18 10:01:30;;;;;;;5.53;2.22;;;;;;;29.42;33.48;94011.13;5025336;28;20061;-80
2023/08/18 10:03:58;;;;;;;11.15;2.35;;;;;;;29.51;33.64;94005.78;5025446;28;20107;-80
2023/08/18 10:06:24;;;;;;;13.25;2.25;;;;;;;29.58;33.46;94013.84;5025328;28;20033;-80
2023/08/18 10:08:52;;;;;;;10.18;2.20;;;;;;;29.66;33.63;94012.47;5025787;28;20096;-80
2023/08/18 10:11:17;;;;;;;8.32;2.22;;;;;;;29.77;33.07;94007.47;5025523;28;20068;-80
2023/08/18 10:13:45;;;;;;;7.93;2.08;;;;;;;29.84;33.15;94006.53;5025351;28;20212;-80
2023/08/18 10:16:10;;;;;;;8.80;2.38;;;;;;;29.94;32.79;94005.47;5025104;28;20022;-80
2023/08/18 10:18:36;;;;;;;5.25;1.85;;;;;;;30.02;32.85;94000.53;5025224;28;20255;-80
2023/08/18 10:21:03;;;;;;;17.83;2.50;;;;;;;30.00;32.22;94003.72;5025168;28;20033;-80
2023/08/18 10:23:31;;;;;;;7.45;2.30;;;;;;;30.06;32.62;94012.19;5025334;28;20092;-80
2023/08/18 10:25:57;;;;;;;7.25;2.38;;;;;;;30.13;32.52;93998.25;5025191;28;20018;-80
2023/08/18 10:28:29;;;;;;;9.80;2.22;;;;;;;30.22;32.57;93997.63;5024882;28;20021;-80
2023/08/18 10:30:59;;;;;;;;;;;;;;;30.30;32.05;93995.47;5025474;28;20018;-80
2023/08/18 10:33:38;;;;;;;9.77;2.20;;;;;;;30.33;32.48;94008.34;5024900;28;19936;-81
2023/08/18 10:36:05;;;;;;;9.60;2.00;;;;;;;30.43;32.42;94006.47;5023592;28;20033;-80
2023/08/18 10:38:33;;;;;;;11.55;2.53;;;;;;;30.51;32.76;94005.84;5024855;28;20100;-80
2023/08/18 10:40:59;;;;;;;7.78;2.10;;;;;;;30.54;32.20;94013.22;5024710;28;20025;-80
2023/08/18 10:43:27;;;;;;;4.22;2.20;;;;;;;30.60;31.72;94014.22;5024767;28;20193;-80
2023/08/18 10:45:59;;;;;;;8.45;2.58;;;;;;;30.67;31.88;94015.19;5023609;28;20193;-80
2023/08/18 10:48:30;;;;;;;9.13;2.30;;;;;;;30.77;32.28;94008.59;5024616;28;20028;-80
2023/08/18 10:50:55;;;;;;;6.00;2.47;;;;;;;30.86;31.94;94005.97;5024865;28;20075;-80
2023/08/18 10:53:21;;;;;;;8.80;3.55;;;;;;;30.96;32.18;93995.88;5024816;28;20363;-80
2023/08/18 10:55:46;;;;;;;10.75;3.40;;;;;;;31.08;31.69;93997.06;5024769;28;20025;-81
2023/08/18 10:58:14;;;;;;;8.95;2.45;;;;;;;30.89;31.44;93996.84;5024435;28;20112;-80
2023/08/18 11:00:39;;;;;;;12.68;2.72;;;;;;;31.05;32.22;93986.94;5022968;28;20108;-80
2023/08/18 11:03:07;;;;;;;13.95;2.88;;;;;;;31.18;31.34;93991.22;5023704;28;20052;-80
2023/08/18 11:05:33;;;;;;;8.02;2.42;;;;;;;31.06;30.98;93997.53;5024168;28;20056;-80
2023/08/18 11:08:00;;;;;;;9.85;2.75;;;;;;;31.21;31.17;93997.06;5024341;28;20033;-81
2023/08/18 11:10:26;;;;;;;10.38;2.67;;;;;;;31.34;31.27;93984.78;5023930;28;20243;-80
2023/08/18 11:12:53;;;;;;;12.15;2.40;;;;;;;31.36;30.64;93987.09;5022957;28;20034;-81
2023/08/18 11:15:21;;;;;;;10.93;2.80;;;;;;;31.44;31.18;93990.41;5024306;28;20029;-81
2023/08/18 11:17:47;;;;;;;8.48;2.80;;;;;;;31.56;30.86;93992.38;5024271;28;20080;-81
2023/08/18 11:20:13;;;;;;;9.38;2.45;;;;;;;31.64;30.73;93990.91;5024038;28;20037;-81
2023/08/18 11:22:40;;;;;;;11.93;2.45;;;;;;;31.74;31.14;93987.03;5023980;28;20080;-81
2023/08/18 11:25:07;;;;;;;5.43;2.13;;;;;;;31.80;30.25;93976.19;5023985;28;20316;-80
2023/08/18 11:27:33;;;;;;;9.15;3.33;;;;;;;31.87;30.25;93984.19;5023993;28;20089;-81